Heyworth, IL (61745)

6:04 AM CST on November 27, 2014 (GMT -0600)
MesoWest US-51 @ Heyworth IL US ILDOT | Change Station
CLOSE
Current Station
Personal Weather Station
Location: Heyworth, IL
Elevation: 728 ft
Nearby Weather Stations

Elev 728 ft 40.31 °N, 88.99 °W | Updated 240 days ago

Fog
Fog
19 °F
Feels Like 9 °F
N
10
Wind Variable Wind from NW
Gusts 11 mph

Today
High -- | Low -- °F
--% Chance of Precip.
Yesterday
High -- | Low -- °F
Precip. -- in
6:55 AM 4:31 PM
Waxing Crescent, 29% visible
Pressure 30.39 in
Visibility 6.0 miles
Clouds Mostly Cloudy 4300 ft
Overcast 5000 ft
Windchill 9 °F
Dew Point 19 °F
Humidity 100%
Rainfall -999.00 in
Snow Depth Not available.
UV 0 out of 12
Pollen .10 out of 12
Air Quality Not available.
Flu Activity Not available.
METAR KBMI 271156Z 31012KT 6SM BR BKN043 OVC050 M05/M07 A3032 RMK AO2 53015 T10501066 11044 21055 SLP289

More Conditions Fewer Conditions

Pressure 30.39 in
Visibility 6.0 miles
Clouds Mostly Cloudy 4300 ft
Overcast 5000 ft
Windchill 9 °F
Dew Point 19 °F
Humidity 100%
Rainfall -999.00 in
Snow Depth Not available.
UV 0 out of 12
Pollen .10 out of 12
Air Quality Not available.
Flu Activity Not available.
METAR KBMI 271156Z 31012KT 6SM BR BKN043 OVC050 M05/M07 A3032 RMK AO2 53015 T10501066 11044 21055 SLP289

More Conditions Fewer Conditions

10-Day Weather Forecast

Almanac

Astronomy

Nov. 27, 2014 Rise Set
Actual Time
Civil Twilight
Nautical Twilight
Astronomical Twilight
Moon
Length of Visible Light
Length of Day
Tomorrow will be .
, % of the Moon is Illuminated

Today's Extremes

State Highs State Lows

Community

WunderPhotos

Upload Photos

1,773,975 photos uploaded!

WunderBlogs® & News

Nearby

Air Quality

  Air Quality AQ Index Pollutant
Not available.

Snow Depth

Station Depth Elevation

Earthquake Activity

City Distance Mag. Time & Date
Minimum magnitude displayed is 2.5.

Coastal Water Temperatures

Place Temperature

Nearby Weather Stations